Time;durP1;ratioP1;P1;durP2;ratioP2;P2;SDS_P1;SDS_P2;PMS_P1;PMS_P2;Temp;Humidity;BMP_temperature;BMP_pressure;BME280_temperature;BME280_humidity;BME280_pressure;Samples;Min_cycle;Max_cycle;Signal;HPM_P1;HPM_P2
2024/02/19 00:04:52;;;;;;;36.70;21.00;;;;;;;3.50;63.69;99912.36;231865;198;153133;-58
2024/02/19 00:09:56;;;;;;;36.40;22.20;;;;;;;3.49;63.78;99898.00;231828;201;138311;-58
2024/02/19 00:14:59;;;;;;;35.10;20.00;;;;;;;3.50;63.74;99893.60;231952;201;137847;-59
2024/02/19 00:20:03;;;;;;;32.80;20.20;;;;;;;3.45;63.84;99887.54;231844;205;153596;-58
2024/02/19 00:25:07;;;;;;;36.90;20.90;;;;;;;3.38;63.85;99877.52;231819;202;138107;-59
2024/02/19 00:30:11;;;;;;;36.00;20.90;;;;;;;3.31;64.00;99872.73;231884;198;138270;-58
2024/02/19 00:35:14;;;;;;;35.20;20.10;;;;;;;3.27;64.11;99867.20;231962;204;152582;-57
2024/02/19 00:40:18;;;;;;;33.90;20.20;;;;;;;3.22;64.12;99863.77;232073;205;138231;-57
2024/02/19 00:45:22;;;;;;;35.40;20.90;;;;;;;3.20;64.44;99857.52;231883;202;137926;-56
2024/02/19 00:50:26;;;;;;;33.20;20.00;;;;;;;3.16;64.55;99858.63;231901;201;152999;-57
2024/02/19 00:55:29;;;;;;;32.60;20.40;;;;;;;3.13;64.78;99855.90;231989;201;137617;-57
2024/02/19 01:00:33;;;;;;;36.40;21.60;;;;;;;3.14;64.83;99845.89;231931;204;138458;-58
2024/02/19 01:05:36;;;;;;;34.30;20.20;;;;;;;3.11;64.92;99836.11;231841;198;153766;-58
2024/02/19 01:10:40;;;;;;;35.00;20.50;;;;;;;3.07;64.92;99827.43;231980;202;138605;-57
2024/02/19 01:15:43;;;;;;;43.80;20.90;;;;;;;3.08;64.93;99819.16;231862;201;138148;-57
2024/02/19 01:20:46;;;;;;;36.40;20.50;;;;;;;3.07;65.23;99815.48;231938;204;152907;-58
2024/02/19 01:25:52;;;;;;;39.90;21.10;;;;;;;3.05;65.08;99806.44;231978;198;140211;-59
2024/02/19 01:30:57;;;;;;;34.00;20.60;;;;;;;2.98;65.16;99798.85;232107;200;137519;-59
2024/02/19 01:36:00;;;;;;;35.10;21.80;;;;;;;2.94;65.30;99796.65;231899;204;153731;-58
2024/02/19 01:41:04;;;;;;;36.00;20.50;;;;;;;2.92;65.48;99780.04;232035;198;138254;-60
2024/02/19 01:46:08;;;;;;;31.30;19.90;;;;;;;2.87;65.52;99775.04;232083;198;137314;-59
2024/02/19 01:51:13;;;;;;;36.30;20.40;;;;;;;2.82;65.67;99763.91;231903;204;154072;-59
2024/02/19 01:56:18;;;;;;;37.90;20.90;;;;;;;2.80;65.71;99763.80;232040;201;142519;-59
2024/02/19 02:01:22;;;;;;;33.20;20.70;;;;;;;2.70;65.77;99763.80;231842;198;138541;-59
2024/02/19 02:06:26;;;;;;;37.40;21.40;;;;;;;2.67;65.92;99758.27;231915;204;154003;-59
2024/02/19 02:11:29;;;;;;;33.90;21.20;;;;;;;2.67;66.03;99752.65;232021;204;138668;-57
2024/02/19 02:16:33;;;;;;;37.00;21.00;;;;;;;2.70;66.21;99746.12;231934;201;138079;-57
2024/02/19 02:21:40;;;;;;;37.20;21.30;;;;;;;2.73;66.35;99739.41;231901;198;153979;-58
2024/02/19 02:26:43;;;;;;;37.50;21.20;;;;;;;2.70;66.21;99730.16;231806;198;139605;-57
2024/02/19 02:31:46;;;;;;;36.60;21.60;;;;;;;2.66;66.15;99720.60;231836;199;137484;-57
2024/02/19 02:36:49;;;;;;;37.00;20.80;;;;;;;2.67;66.19;99720.94;231916;198;153344;-58
2024/02/19 02:41:52;;;;;;;36.40;21.70;;;;;;;2.59;66.30;99717.75;231833;198;139221;-57
2024/02/19 02:46:56;;;;;;;38.40;21.90;;;;;;;2.57;66.46;99717.61;231906;198;137674;-57
2024/02/19 02:51:59;;;;;;;34.80;20.50;;;;;;;2.58;66.53;99704.11;232167;198;153215;-58
2024/02/19 02:57:02;;;;;;;35.10;20.90;;;;;;;2.62;66.67;99681.80;231982;201;139159;-58
2024/02/19 03:02:05;;;;;;;36.10;22.40;;;;;;;2.63;66.64;99671.43;231998;201;138683;-58
2024/02/19 03:07:09;;;;;;;38.40;22.90;;;;;;;2.65;66.68;99668.61;231303;198;153124;-57
2024/02/19 03:12:12;;;;;;;37.50;21.20;;;;;;;2.67;66.70;99655.60;231892;198;137526;-58
2024/02/19 03:17:15;;;;;;;33.80;21.60;;;;;;;2.69;66.56;99643.83;232021;198;138201;-58
2024/02/19 03:22:19;;;;;;;38.60;22.30;;;;;;;2.74;66.62;99643.73;232008;198;153732;-58
2024/02/19 03:27:22;;;;;;;43.00;27.00;;;;;;;2.80;66.62;99636.58;232024;198;138441;-58
2024/02/19 03:32:25;;;;;;;50.00;27.70;;;;;;;2.89;66.45;99627.12;231838;199;137669;-58
2024/02/19 03:37:28;;;;;;;46.00;28.30;;;;;;;2.91;66.33;99630.76;232094;204;153653;-58
2024/02/19 03:42:32;;;;;;;43.90;25.70;;;;;;;2.88;66.38;99620.83;231872;201;137260;-59
2024/02/19 03:47:35;;;;;;;36.80;22.60;;;;;;;2.85;66.44;99615.27;231976;205;138349;-59
2024/02/19 03:52:39;;;;;;;34.10;21.60;;;;;;;2.81;66.37;99610.45;231975;198;153757;-60
2024/02/19 03:57:44;;;;;;;34.70;21.90;;;;;;;2.81;66.50;99611.51;231912;198;140691;-59
2024/02/19 04:02:47;;;;;;;32.70;21.00;;;;;;;2.79;66.70;99605.59;231964;205;142112;-59
2024/02/19 04:07:50;;;;;;;33.50;21.60;;;;;;;2.81;66.72;99591.86;231992;204;154978;-60
2024/02/19 04:12:53;;;;;;;32.50;21.80;;;;;;;2.86;66.80;99582.32;231992;204;139113;-60
2024/02/19 04:17:57;;;;;;;33.70;21.40;;;;;;;2.91;66.89;99573.96;231899;198;137860;-58
2024/02/19 04:23:00;;;;;;;33.10;21.70;;;;;;;2.94;66.98;99567.75;231805;204;153347;-59
2024/02/19 04:28:04;;;;;;;38.40;21.90;;;;;;;2.97;67.05;99561.38;232026;197;139263;-60
2024/02/19 04:33:07;;;;;;;34.10;21.80;;;;;;;3.03;66.85;99552.50;231950;204;137667;-58
2024/02/19 04:38:10;;;;;;;37.60;23.20;;;;;;;3.08;66.74;99548.69;231818;199;153820;-58
2024/02/19 04:43:13;;;;;;;86.40;56.00;;;;;;;3.22;68.83;99540.27;231769;204;137804;-58
2024/02/19 04:48:17;;;;;;;51.20;32.20;;;;;;;3.36;67.19;99531.71;231834;198;141806;-59
2024/02/19 04:53:20;;;;;;;83.10;54.90;;;;;;;3.41;66.81;99526.15;231908;197;153282;-59
2024/02/19 04:58:23;;;;;;;125.90;80.30;;;;;;;3.44;66.75;99520.62;231946;198;138772;-59
2024/02/19 05:03:27;;;;;;;47.40;28.20;;;;;;;3.44;66.99;99512.90;231841;200;138594;-58
2024/02/19 05:08:30;;;;;;;40.60;25.60;;;;;;;3.43;66.57;99505.57;231838;204;155370;-59
2024/02/19 05:13:36;;;;;;;39.80;25.20;;;;;;;3.40;66.58;99510.73;231939;198;137369;-59
2024/02/19 05:18:39;;;;;;;40.30;23.90;;;;;;;3.38;66.60;99506.77;231765;197;137944;-58
2024/02/19 05:23:42;;;;;;;275.60;180.70;;;;;;;3.46;67.26;99496.71;231841;205;153181;-59
2024/02/19 05:28:46;;;;;;;333.30;230.50;;;;;;;3.59;66.82;99491.30;231883;201;137875;-58
2024/02/19 05:33:49;;;;;;;107.90;64.00;;;;;;;3.72;66.60;99486.56;231774;202;139417;-59
2024/02/19 05:38:52;;;;;;;146.00;72.10;;;;;;;3.84;66.39;99476.06;231858;198;154482;-57
2024/02/19 05:43:56;;;;;;;40.80;24.30;;;;;;;3.89;65.84;99471.54;231920;201;138724;-59
2024/02/19 05:49:00;;;;;;;36.40;23.90;;;;;;;3.84;65.79;99465.71;231852;201;140596;-60
2024/02/19 05:54:04;;;;;;;41.90;23.30;;;;;;;3.83;65.97;99465.39;231918;197;153345;-60
2024/02/19 05:59:08;;;;;;;40.80;22.50;;;;;;;3.85;65.94;99459.20;231825;202;141604;-59
2024/02/19 06:04:11;;;;;;;39.10;22.30;;;;;;;3.85;65.84;99453.23;232050;198;138092;-58
2024/02/19 06:09:16;;;;;;;39.10;22.10;;;;;;;3.82;65.97;99448.21;231521;198;153481;-57
2024/02/19 06:14:19;;;;;;;39.00;24.00;;;;;;;3.81;65.97;99441.40;231737;204;137618;-58
2024/02/19 06:19:23;;;;;;;445.50;328.20;;;;;;;3.87;66.59;99438.77;231818;198;137460;-59
2024/02/19 06:24:26;;;;;;;47.50;29.70;;;;;;;3.96;66.68;99438.52;231964;204;153100;-58
2024/02/19 06:29:30;;;;;;;37.20;22.90;;;;;;;3.94;66.34;99431.71;231863;198;138440;-60
2024/02/19 06:34:34;;;;;;;32.00;21.00;;;;;;;3.91;66.21;99434.80;232024;199;138161;-60
2024/02/19 06:39:40;;;;;;;31.10;21.20;;;;;;;3.90;66.33;99435.85;231836;197;154222;-59
2024/02/19 06:44:43;;;;;;;30.20;21.20;;;;;;;3.89;66.30;99436.06;231904;204;138263;-60
2024/02/19 06:49:46;;;;;;;36.30;21.40;;;;;;;3.92;66.52;99434.40;231923;198;137735;-60
2024/02/19 06:54:50;;;;;;;34.30;20.40;;;;;;;3.95;66.18;99433.45;231881;197;153677;-61
2024/02/19 06:59:54;;;;;;;34.40;21.00;;;;;;;3.97;66.48;99427.61;231739;198;138558;-63
2024/02/19 07:04:57;;;;;;;33.30;22.40;;;;;;;3.99;66.50;99426.11;232034;201;137773;-60
2024/02/19 07:10:02;;;;;;;30.80;21.30;;;;;;;4.03;66.93;99424.09;231977;198;154641;-60
2024/02/19 07:15:09;;;;;;;33.80;21.90;;;;;;;4.12;66.80;99415.60;231571;198;138850;-60
2024/02/19 07:20:13;;;;;;;352.90;275.90;;;;;;;4.19;66.93;99410.44;231912;198;137684;-61
2024/02/19 07:25:18;;;;;;;42.60;27.30;;;;;;;4.34;67.52;99404.72;231952;197;154705;-60
2024/02/19 07:30:24;;;;;;;39.70;23.10;;;;;;;4.55;66.98;99398.79;231721;198;137382;-61
2024/02/19 07:35:27;;;;;;;37.00;24.80;;;;;;;4.66;66.50;99397.73;231975;204;138591;-58
2024/02/19 07:40:30;;;;;;;52.70;28.20;;;;;;;4.73;66.22;99392.41;232269;197;153887;-62
2024/02/19 07:45:38;;;;;;;40.10;26.50;;;;;;;5.86;71.15;99393.05;231861;198;138760;-58
2024/02/19 07:50:41;;;;;;;43.60;29.30;;;;;;;5.86;65.08;99383.73;231979;204;137498;-59
2024/02/19 07:55:45;;;;;;;41.40;27.60;;;;;;;5.68;64.75;99380.70;231686;204;153540;-59
2024/02/19 08:00:48;;;;;;;40.40;28.40;;;;;;;5.51;64.73;99373.39;231563;198;138321;-59
2024/02/19 08:05:51;;;;;;;46.60;29.30;;;;;;;5.39;65.01;99364.65;231978;198;139426;-59
2024/02/19 08:10:54;;;;;;;46.90;31.60;;;;;;;5.31;65.47;99365.83;232063;204;153862;-59
2024/02/19 08:15:58;;;;;;;49.20;33.10;;;;;;;5.31;66.26;99363.20;231926;204;139684;-63
2024/02/19 08:21:01;;;;;;;47.60;32.60;;;;;;;5.40;66.32;99360.39;231938;198;141955;-62
2024/02/19 08:26:04;;;;;;;38.70;27.20;;;;;;;5.42;66.01;99354.89;231634;202;153132;-58
2024/02/19 08:31:08;;;;;;;36.60;25.80;;;;;;;5.43;66.24;99349.73;231745;198;140734;-59
2024/02/19 08:36:11;;;;;;;35.50;25.20;;;;;;;5.48;66.29;99344.63;231671;205;139019;-59
2024/02/19 08:41:14;;;;;;;38.40;25.70;;;;;;;5.56;66.46;99338.70;231880;201;154327;-59
2024/02/19 08:46:17;;;;;;;36.40;23.00;;;;;;;5.69;66.45;99339.11;231811;202;137813;-58
2024/02/19 08:51:20;;;;;;;39.30;25.10;;;;;;;5.74;66.26;99340.85;231837;198;137914;-65
2024/02/19 08:56:27;;;;;;;41.20;23.90;;;;;;;5.90;67.47;99333.23;231905;197;153770;-62
2024/02/19 09:01:30;;;;;;;36.10;22.10;;;;;;;6.06;66.52;99328.92;231663;205;138146;-63
2024/02/19 09:06:33;;;;;;;553.80;384.10;;;;;;;6.16;66.69;99326.60;231590;201;138781;-64
2024/02/19 09:11:36;;;;;;;42.60;26.40;;;;;;;6.35;67.06;99321.09;231623;198;153295;-61
2024/02/19 09:16:39;;;;;;;41.30;25.80;;;;;;;6.45;66.74;99321.93;231763;202;138150;-62
2024/02/19 09:21:44;;;;;;;79.40;53.60;;;;;;;6.45;66.89;99318.91;231752;201;141657;-64
2024/02/19 09:26:47;;;;;;;95.60;61.70;;;;;;;6.54;67.85;99309.56;231737;201;153212;-63
2024/02/19 09:31:51;;;;;;;45.10;29.00;;;;;;;6.62;67.53;99305.88;231715;202;138017;-62
2024/02/19 09:36:54;;;;;;;45.40;28.40;;;;;;;6.61;66.94;99298.86;231587;198;138759;-61
2024/02/19 09:41:58;;;;;;;39.80;27.20;;;;;;;6.64;67.00;99298.04;231603;198;153228;-61
2024/02/19 09:47:02;;;;;;;41.70;26.70;;;;;;;6.65;66.85;99295.52;231637;201;139154;-63
2024/02/19 09:52:09;;;;;;;39.40;28.30;;;;;;;6.64;67.07;99291.52;231888;198;138680;-62
2024/02/19 09:57:13;;;;;;;40.00;26.90;;;;;;;6.67;67.05;99287.86;231753;197;153127;-62
2024/02/19 10:02:18;;;;;;;37.70;27.20;;;;;;;6.68;67.12;99282.02;231764;197;139779;-63
2024/02/19 10:07:22;;;;;;;38.70;27.10;;;;;;;6.70;67.38;99283.70;231694;198;142751;-61
2024/02/19 10:12:25;;;;;;;92.60;61.00;;;;;;;6.94;69.62;99281.79;231735;199;154571;-63
2024/02/19 10:17:29;;;;;;;45.60;28.50;;;;;;;7.17;67.52;99266.65;231743;199;137677;-61
2024/02/19 10:22:33;;;;;;;36.40;25.70;;;;;;;7.19;66.89;99258.60;232016;201;137645;-62
2024/02/19 10:27:37;;;;;;;39.00;25.70;;;;;;;7.23;66.84;99254.58;231741;198;153462;-61
2024/02/19 10:32:41;;;;;;;41.40;26.60;;;;;;;7.26;66.69;99252.14;231756;197;139122;-62
2024/02/19 10:37:45;;;;;;;42.40;26.30;;;;;;;7.31;66.62;99250.99;231711;202;142010;-61
2024/02/19 10:42:50;;;;;;;39.80;27.80;;;;;;;7.38;66.83;99245.58;231684;201;154540;-60
2024/02/19 10:47:53;;;;;;;55.40;35.40;;;;;;;7.48;67.39;99239.66;231758;202;137420;-62
2024/02/19 10:52:58;;;;;;;38.20;25.60;;;;;;;7.62;66.85;99231.58;231752;200;137462;-61
2024/02/19 10:58:02;;;;;;;47.00;28.40;;;;;;;7.82;66.89;99223.04;231699;198;290609;-63
2024/02/19 11:03:07;;;;;;;42.80;28.30;;;;;;;8.06;66.70;99219.06;231758;198;137684;-62
2024/02/19 11:08:22;;;;;;;53.80;27.70;;;;;;;8.32;66.41;99209.83;231615;199;139220;-60
2024/02/19 11:13:26;;;;;;;50.80;27.90;;;;;;;8.53;66.17;99203.31;231838;205;153851;-61
2024/02/19 11:18:31;;;;;;;42.00;26.50;;;;;;;8.71;65.96;99201.13;231730;198;140352;-61
2024/02/19 11:23:35;;;;;;;42.60;25.40;;;;;;;8.82;65.67;99191.22;231806;204;138151;-60
2024/02/19 11:28:38;;;;;;;47.00;26.50;;;;;;;8.98;65.51;99182.19;231983;204;153351;-61
2024/02/19 11:33:41;;;;;;;45.40;25.50;;;;;;;9.09;65.40;99170.84;232019;201;138513;-61
2024/02/19 11:38:44;;;;;;;43.30;24.70;;;;;;;9.20;65.43;99165.45;231772;198;141967;-60
2024/02/19 11:43:48;;;;;;;44.40;23.50;;;;;;;9.35;65.16;99163.42;231924;198;154376;-61
2024/02/19 11:48:52;;;;;;;41.10;22.90;;;;;;;9.48;65.01;99161.60;231700;198;138953;-61
2024/02/19 11:53:56;;;;;;;28.00;18.00;;;;;;;9.63;64.97;99149.23;231823;198;138290;-61
2024/02/19 11:58:59;;;;;;;28.10;17.20;;;;;;;9.78;64.51;99141.70;232047;198;153721;-61
2024/02/19 12:04:03;;;;;;;31.00;14.90;;;;;;;9.85;64.46;99139.71;231963;198;138126;-60
2024/02/19 12:09:08;;;;;;;20.10;13.10;;;;;;;9.95;64.57;99139.98;231910;204;137638;-60
2024/02/19 12:14:17;;;;;;;20.80;12.30;;;;;;;10.06;64.62;99137.06;231775;204;153038;-59
2024/02/19 12:19:20;;;;;;;20.40;11.40;;;;;;;10.18;64.43;99129.08;231829;198;138033;-59
2024/02/19 12:24:23;;;;;;;13.80;10.20;;;;;;;10.31;64.08;99126.22;231965;198;139505;-59
2024/02/19 12:29:27;;;;;;;16.90;10.00;;;;;;;10.36;64.20;99126.07;232042;204;153325;-58
2024/02/19 12:34:30;;;;;;;6.10;3.50;;;;;;;10.42;64.38;99128.95;231823;197;138497;-61
2024/02/19 12:39:33;;;;;;;3.50;2.40;;;;;;;10.46;63.97;99119.68;231819;198;138008;-61
2024/02/19 12:44:38;;;;;;;3.40;2.30;;;;;;;10.50;63.57;99110.36;231891;197;153086;-62
2024/02/19 12:49:41;;;;;;;6.00;2.70;;;;;;;10.54;63.46;99104.96;231897;198;137857;-62
2024/02/19 12:54:46;;;;;;;5.30;2.10;;;;;;;10.60;63.17;99103.16;231941;204;138681;-62
2024/02/19 12:59:50;;;;;;;6.60;2.20;;;;;;;10.64;62.65;99101.67;231916;204;154183;-63
2024/02/19 13:04:53;;;;;;;3.00;2.50;;;;;;;10.65;62.20;99096.63;231863;198;142123;-63
2024/02/19 13:09:58;;;;;;;5.40;2.30;;;;;;;10.66;62.25;99097.83;231948;204;137220;-62
2024/02/19 13:15:02;;;;;;;3.80;2.20;;;;;;;10.68;62.16;99103.76;231740;205;154512;-63
2024/02/19 13:20:06;;;;;;;4.20;1.80;;;;;;;10.70;61.95;99102.40;231909;204;137269;-62
2024/02/19 13:25:10;;;;;;;3.90;1.80;;;;;;;10.69;62.12;99092.84;231813;198;138372;-63
2024/02/19 13:30:16;;;;;;;3.30;1.90;;;;;;;10.73;62.37;99089.43;231966;197;153015;-62
2024/02/19 13:35:19;;;;;;;;;;;;;;;10.75;62.02;99093.38;231722;198;137732;-63
2024/02/19 13:40:23;;;;;;;3.50;2.20;;;;;;;10.74;61.93;99095.93;231991;204;136909;-62
2024/02/19 13:45:31;;;;;;;2.70;2.20;;;;;;;10.70;61.95;99105.02;231819;201;153423;-62
2024/02/19 13:50:34;;;;;;;3.10;2.10;;;;;;;10.67;62.48;99105.60;231677;205;140795;-61
2024/02/19 13:55:37;;;;;;;4.00;2.50;;;;;;;10.62;63.14;99112.95;231874;197;138464;-61
2024/02/19 14:00:44;;;;;;;4.20;2.50;;;;;;;10.55;64.11;99118.23;231883;204;153117;-61
2024/02/19 14:05:47;;;;;;;4.20;2.40;;;;;;;10.47;65.21;99121.73;231676;199;137504;-63
2024/02/19 14:10:51;;;;;;;3.50;2.40;;;;;;;10.45;66.05;99124.11;231965;198;137980;-63
2024/02/19 14:15:55;;;;;;;3.20;2.40;;;;;;;10.50;66.64;99122.26;231793;201;154394;-63
2024/02/19 14:20:58;;;;;;;3.80;2.60;;;;;;;10.57;66.85;99129.09;231738;202;137579;-63
2024/02/19 14:26:01;;;;;;;3.50;2.50;;;;;;;10.52;67.41;99137.40;231774;198;138569;-63
2024/02/19 14:31:05;;;;;;;4.40;3.00;;;;;;;10.42;68.31;99145.63;231642;204;154009;-62
2024/02/19 14:36:08;;;;;;;5.00;2.90;;;;;;;10.27;68.93;99150.04;231855;205;138617;-62
2024/02/19 14:41:13;;;;;;;5.10;3.20;;;;;;;10.13;69.78;99160.95;231847;198;137289;-62
2024/02/19 14:46:18;;;;;;;2.80;2.20;;;;;;;10.08;70.13;99158.20;231925;198;153575;-61
2024/02/19 14:51:21;;;;;;;3.60;2.60;;;;;;;10.08;70.17;99167.98;231654;201;137549;-63
2024/02/19 14:56:28;;;;;;;4.20;2.70;;;;;;;10.06;70.14;99170.19;231783;198;138206;-61
2024/02/19 15:01:31;;;;;;;3.70;2.80;;;;;;;10.08;69.89;99174.69;231821;198;153504;-62
2024/02/19 15:06:34;;;;;;;3.30;2.70;;;;;;;10.07;69.57;99172.08;231947;202;137600;-62
2024/02/19 15:11:38;;;;;;;6.50;3.60;;;;;;;10.02;69.45;99170.24;231762;202;137796;-61
2024/02/19 15:16:41;;;;;;;7.80;4.40;;;;;;;10.11;71.60;99176.81;231881;201;154477;-62
2024/02/19 15:21:44;;;;;;;4.40;2.30;;;;;;;10.14;69.59;99181.59;231856;204;138961;-62
2024/02/19 15:26:48;;;;;;;3.30;2.00;;;;;;;10.03;69.43;99181.35;231881;201;138138;-62
2024/02/19 15:31:52;;;;;;;4.60;2.30;;;;;;;9.94;69.27;99183.27;231632;205;153209;-61
2024/02/19 15:36:55;;;;;;;2.90;2.00;;;;;;;9.94;69.02;99184.52;231685;201;143272;-62
2024/02/19 15:41:58;;;;;;;5.60;2.40;;;;;;;9.92;69.01;99186.43;231787;201;137414;-61
2024/02/19 15:47:02;;;;;;;6.90;3.90;;;;;;;9.96;68.94;99192.21;231911;198;153120;-55
2024/02/19 15:52:06;;;;;;;3.50;2.80;;;;;;;10.41;75.08;99200.79;231946;197;136915;-61
2024/02/19 15:57:09;;;;;;;3.70;2.20;;;;;;;10.36;68.90;99200.61;231636;205;137360;-61
2024/02/19 16:02:13;;;;;;;3.40;2.20;;;;;;;10.14;68.85;99207.83;231948;198;152988;-61
2024/02/19 16:07:16;;;;;;;4.40;2.60;;;;;;;9.99;68.74;99210.83;231832;205;137346;-61
2024/02/19 16:12:24;;;;;;;4.10;2.30;;;;;;;9.84;69.13;99219.99;231884;204;137131;-61
2024/02/19 16:17:27;;;;;;;3.00;2.10;;;;;;;9.81;69.30;99229.06;231796;198;153658;-63
2024/02/19 16:22:31;;;;;;;4.30;2.90;;;;;;;9.79;69.65;99230.23;231810;199;138084;-63
2024/02/19 16:27:35;;;;;;;4.50;2.20;;;;;;;9.77;69.83;99231.92;232007;204;138252;-63
2024/02/19 16:32:38;;;;;;;6.50;3.00;;;;;;;9.75;69.81;99238.07;231670;198;153229;-62
2024/02/19 16:37:42;;;;;;;4.80;3.40;;;;;;;9.73;69.97;99239.75;231973;204;138309;-63
2024/02/19 16:42:45;;;;;;;6.40;3.80;;;;;;;9.68;70.10;99243.21;231807;201;140455;-64
2024/02/19 16:47:53;;;;;;;7.30;4.60;;;;;;;9.67;70.28;99239.20;231827;204;153220;-63
2024/02/19 16:52:56;;;;;;;123.10;80.40;;;;;;;9.68;70.23;99242.14;231676;201;138549;-67
2024/02/19 16:57:59;;;;;;;10.80;7.50;;;;;;;9.71;70.19;99251.05;231732;198;138034;-63
2024/02/19 17:03:03;;;;;;;32.40;25.80;;;;;;;9.68;70.56;99260.57;231837;198;152570;-62
2024/02/19 17:08:07;;;;;;;8.20;5.30;;;;;;;9.72;70.44;99262.86;231790;201;138511;-63
2024/02/19 17:13:13;;;;;;;10.30;6.10;;;;;;;9.71;70.17;99267.89;231864;199;137811;-63
2024/02/19 17:18:16;;;;;;;10.00;5.70;;;;;;;9.69;70.07;99264.40;231714;202;153162;-63
2024/02/19 17:23:20;;;;;;;8.20;5.10;;;;;;;9.65;69.93;99262.86;231840;198;141919;-61
2024/02/19 17:28:24;;;;;;;5.90;4.10;;;;;;;9.63;69.39;99263.86;231969;204;138459;-61
2024/02/19 17:33:28;;;;;;;5.70;3.60;;;;;;;9.62;68.25;99265.66;231766;198;153497;-64
2024/02/19 17:38:31;;;;;;;3.90;3.00;;;;;;;9.51;67.19;99265.94;231772;198;138175;-62
2024/02/19 17:43:35;;;;;;;54.10;36.80;;;;;;;9.41;69.07;99264.72;231751;199;138454;-65
2024/02/19 17:48:38;;;;;;;24.30;14.70;;;;;;;9.45;67.42;99269.80;231790;198;153296;-58
2024/02/19 17:53:42;;;;;;;4.00;2.60;;;;;;;9.40;66.68;99280.52;231851;204;138243;-60
2024/02/19 17:58:46;;;;;;;4.60;2.80;;;;;;;9.39;66.52;99279.54;231890;204;138344;-61
2024/02/19 18:03:49;;;;;;;4.70;3.30;;;;;;;9.40;66.98;99283.34;231725;201;154945;-62
2024/02/19 18:08:53;;;;;;;4.60;2.90;;;;;;;9.47;66.40;99293.25;231736;198;141284;-62
2024/02/19 18:13:57;;;;;;;3.60;2.60;;;;;;;9.37;66.20;99301.58;231770;204;137489;-63
2024/02/19 18:19:01;;;;;;;4.90;2.50;;;;;;;9.36;67.36;99312.06;231805;197;154165;-63
2024/02/19 18:24:08;;;;;;;5.00;2.50;;;;;;;9.22;67.22;99298.45;231846;197;142569;-60
2024/02/19 18:29:14;;;;;;;2.50;1.90;;;;;;;9.09;67.25;99301.81;231947;198;137457;-61
2024/02/19 18:34:17;;;;;;;4.10;2.00;;;;;;;8.87;67.57;99304.52;232011;198;153143;-61
2024/02/19 18:39:21;;;;;;;3.30;2.10;;;;;;;8.68;67.81;99306.36;231759;198;138856;-60
2024/02/19 18:44:24;;;;;;;3.80;1.90;;;;;;;8.63;67.97;99306.80;231729;198;137893;-60
2024/02/19 18:49:31;;;;;;;20.20;15.30;;;;;;;8.64;68.30;99317.70;231855;198;153734;-61
2024/02/19 18:54:35;;;;;;;4.20;2.80;;;;;;;8.69;67.92;99314.25;231817;204;138106;-62
2024/02/19 18:59:39;;;;;;;4.70;2.70;;;;;;;8.71;67.65;99313.09;231777;199;138221;-61
2024/02/19 19:04:43;;;;;;;3.30;2.70;;;;;;;8.67;67.48;99316.48;231893;197;153079;-59
2024/02/19 19:09:47;;;;;;;4.50;2.90;;;;;;;8.57;67.82;99322.48;231832;204;138453;-59
2024/02/19 19:14:51;;;;;;;3.60;2.40;;;;;;;8.52;68.19;99326.95;231729;204;137579;-59
2024/02/19 19:19:54;;;;;;;3.70;2.60;;;;;;;8.55;68.07;99327.16;231766;204;153180;-60
2024/02/19 19:24:57;;;;;;;5.10;2.60;;;;;;;8.64;67.85;99327.58;231906;198;138535;-58
2024/02/19 19:30:01;;;;;;;4.50;2.70;;;;;;;8.67;67.63;99330.47;231728;198;138505;-60
2024/02/19 19:35:05;;;;;;;26.80;22.70;;;;;;;8.76;67.90;99331.98;231984;198;153258;-61
2024/02/19 19:40:09;;;;;;;9.90;5.70;;;;;;;8.89;67.59;99330.05;231968;199;138238;-61
2024/02/19 19:45:14;;;;;;;6.70;3.80;;;;;;;8.90;67.17;99334.84;231962;196;141283;-61
2024/02/19 19:50:19;;;;;;;4.50;2.80;;;;;;;8.77;67.16;99335.45;231881;198;153242;-59
2024/02/19 19:55:22;;;;;;;4.40;3.10;;;;;;;8.68;67.34;99342.06;231737;204;138620;-62
2024/02/19 20:00:27;;;;;;;5.20;3.10;;;;;;;8.68;67.34;99350.75;231792;201;137409;-63
2024/02/19 20:05:32;;;;;;;6.40;3.30;;;;;;;8.71;67.08;99357.67;231786;198;154606;-60
2024/02/19 20:10:36;;;;;;;84.30;71.80;;;;;;;8.76;67.36;99357.97;231994;202;137281;-61
2024/02/19 20:15:40;;;;;;;6.30;3.60;;;;;;;8.90;67.50;99362.23;231904;198;138845;-62
2024/02/19 20:20:43;;;;;;;5.70;3.50;;;;;;;8.99;67.00;99365.64;231861;201;153090;-62
2024/02/19 20:25:48;;;;;;;4.70;3.50;;;;;;;8.98;66.84;99369.97;231783;198;138164;-64
2024/02/19 20:30:53;;;;;;;6.20;3.90;;;;;;;8.97;67.03;99372.27;231697;203;138148;-62
2024/02/19 20:35:57;;;;;;;5.70;3.40;;;;;;;9.00;66.72;99379.41;231703;204;153713;-62
2024/02/19 20:41:02;;;;;;;5.40;3.30;;;;;;;8.91;66.11;99378.83;231931;198;137449;-66
2024/02/19 20:46:06;;;;;;;;;;;;;;;8.87;66.46;99383.24;231931;197;138829;-64
2024/02/19 20:51:09;;;;;;;70.30;51.50;;;;;;;8.81;66.70;99386.60;231936;201;153685;-62
2024/02/19 20:56:13;;;;;;;7.10;4.60;;;;;;;8.82;67.46;99385.29;231718;204;138114;-63
2024/02/19 21:01:16;;;;;;;7.90;4.70;;;;;;;8.82;67.28;99384.39;231824;198;137726;-63
2024/02/19 21:06:19;;;;;;;8.80;5.00;;;;;;;8.78;67.53;99385.98;231859;201;154433;-64
2024/02/19 21:11:23;;;;;;;8.40;5.30;;;;;;;8.73;67.88;99391.55;231818;198;138121;-63
2024/02/19 21:16:26;;;;;;;8.30;4.90;;;;;;;8.70;68.26;99388.15;231981;198;137961;-63
2024/02/19 21:21:31;;;;;;;7.90;5.20;;;;;;;8.75;68.44;99382.95;231778;204;154580;-63
2024/02/19 21:26:37;;;;;;;7.30;4.80;;;;;;;8.84;68.41;99382.17;231742;198;140542;-63
2024/02/19 21:31:40;;;;;;;9.40;5.50;;;;;;;8.88;68.34;99384.26;231866;201;137871;-64
2024/02/19 21:36:44;;;;;;;8.10;5.60;;;;;;;8.86;68.29;99386.85;232026;201;153015;-64
2024/02/19 21:41:47;;;;;;;7.90;5.30;;;;;;;8.84;68.25;99392.64;231796;200;137491;-64
2024/02/19 21:46:50;;;;;;;7.50;5.00;;;;;;;8.80;68.17;99390.36;232045;204;138245;-64
2024/02/19 21:51:54;;;;;;;9.00;5.40;;;;;;;8.79;68.21;99386.34;231746;198;153396;-64
2024/02/19 21:56:57;;;;;;;6.40;4.30;;;;;;;8.75;68.12;99388.77;231802;199;137927;-66
2024/02/19 22:02:01;;;;;;;7.90;4.60;;;;;;;8.71;68.16;99391.98;231916;201;138246;-66
2024/02/19 22:07:04;;;;;;;7.30;4.20;;;;;;;8.70;68.29;99388.84;231744;199;153130;-66
2024/02/19 22:12:08;;;;;;;7.00;5.20;;;;;;;8.71;68.53;99398.19;231895;198;138181;-65
2024/02/19 22:17:11;;;;;;;8.30;5.00;;;;;;;8.77;68.68;99400.03;231808;201;139737;-66
2024/02/19 22:22:14;;;;;;;8.40;5.20;;;;;;;8.73;68.86;99402.16;231853;198;153209;-65
2024/02/19 22:27:18;;;;;;;7.60;5.00;;;;;;;8.71;69.11;99400.32;231833;198;138730;-66
2024/02/19 22:32:21;;;;;;;7.20;4.90;;;;;;;8.66;69.27;99401.08;231828;197;138321;-66
2024/02/19 22:37:26;;;;;;;7.00;5.10;;;;;;;8.63;69.56;99398.21;231915;198;153156;-66
2024/02/19 22:42:30;;;;;;;7.10;4.40;;;;;;;8.61;69.81;99403.48;231740;198;137453;-66
2024/02/19 22:47:33;;;;;;;6.80;4.50;;;;;;;8.59;70.08;99401.77;231915;204;138439;-66
2024/02/19 22:52:37;;;;;;;6.10;3.90;;;;;;;8.54;70.52;99402.89;231916;198;154361;-66
2024/02/19 22:57:44;;;;;;;5.60;3.50;;;;;;;8.50;70.81;99411.23;231711;205;137610;-66
2024/02/19 23:02:48;;;;;;;4.20;3.30;;;;;;;8.54;71.45;99405.39;231704;198;142171;-66
2024/02/19 23:07:53;;;;;;;5.30;3.90;;;;;;;8.60;71.67;99400.52;231937;198;153266;-67
2024/02/19 23:12:57;;;;;;;4.80;3.90;;;;;;;8.70;71.89;99397.70;231975;204;138398;-66
2024/02/19 23:18:02;;;;;;;8.30;4.50;;;;;;;8.69;72.21;99394.20;231724;198;141664;-66
2024/02/19 23:23:06;;;;;;;;;;;;;;;8.63;72.55;99393.97;231856;199;154165;-66
2024/02/19 23:28:09;;;;;;;8.00;4.80;;;;;;;8.65;72.91;99396.00;232014;202;138641;-65
2024/02/19 23:33:13;;;;;;;9.40;5.80;;;;;;;8.63;73.16;99397.36;231869;205;138171;-65